Terminal Aerodrome Forecast
Issued by NWS

Home | Current Version | Previous Version | Text Only | Print | Product List | Glossary On
Versions: 1 2 3 4 5 6 7 8 9 10 11 12 13 14 15 16 17 18 19 20 21 22 23 24 25 26 27 28 29 30 31 32 33
000
FTUS41 KRNK 301739
TAFLWB
TAF
KLWB 301739Z 3018/3118 20005KT P6SM SCT035
     FM302200 19004KT P6SM BKN045
     FM310300 19003KT P6SM SCT035 BKN130
     FM310900 00000KT 4SM BR SCT040 BKN110
     FM311300 24003KT P6SM SCT009 BKN050=

USA.gov is the U.S. government's official web portal to all federal, state and local government web resources and services.